Time;durP1;ratioP1;P1;durP2;ratioP2;P2;SDS_P1;SDS_P2;PMS_P1;PMS_P2;Temp;Humidity;BMP_temperature;BMP_pressure;BME280_temperature;BME280_humidity;BME280_pressure;Samples;Min_cycle;Max_cycle;Signal;HPM_P1;HPM_P2
2022/09/07 00:02:08;;;;;;;10.65;9.70;;;21.80;61.70;;;;;;4918929;29;20047;-65
2022/09/07 00:04:34;;;;;;;12.90;11.32;;;21.80;61.60;;;;;;4932281;28;20054;-65
2022/09/07 00:07:00;;;;;;;11.25;10.18;;;21.80;61.70;;;;;;4937490;29;20443;-65
2022/09/07 00:09:26;;;;;;;14.70;13.20;;;21.80;61.80;;;;;;4953235;29;20112;-65
2022/09/07 00:11:51;;;;;;;11.65;10.50;;;21.80;61.90;;;;;;4953096;29;20051;-65
2022/09/07 00:14:17;;;;;;;12.88;11.68;;;21.80;62.40;;;;;;4925390;29;20055;-65
2022/09/07 00:16:43;;;;;;;12.90;11.38;;;21.80;62.00;;;;;;4930083;29;20079;-65
2022/09/07 00:19:08;;;;;;;14.43;13.02;;;21.80;61.90;;;;;;4937363;29;20044;-65
2022/09/07 00:21:35;;;;;;;12.30;11.02;;;21.80;62.00;;;;;;4932098;29;20123;-65
2022/09/07 00:24:01;;;;;;;13.35;11.95;;;21.70;61.90;;;;;;4936748;29;20051;-65
2022/09/07 00:26:29;;;;;;;12.40;11.18;;;21.70;62.00;;;;;;4952977;28;20107;-65
2022/09/07 00:29:00;;;;;;;13.60;12.20;;;21.80;62.00;;;;;;4937281;29;20094;-65
2022/09/07 00:31:28;;;;;;;12.18;11.07;;;21.70;61.90;;;;;;4903698;29;20090;-65
2022/09/07 00:33:57;;;;;;;11.55;10.07;;;21.70;61.90;;;;;;4949233;29;20521;-65
2022/09/07 00:36:23;;;;;;;12.07;10.88;;;21.70;61.80;;;;;;4938215;29;20499;-65
2022/09/07 00:38:49;;;;;;;13.13;11.80;;;21.70;61.90;;;;;;4952528;29;20047;-65
2022/09/07 00:41:16;;;;;;;13.38;11.88;;;21.70;62.10;;;;;;4952954;29;20055;-65
2022/09/07 00:43:44;;;;;;;17.20;14.07;;;21.70;62.30;;;;;;4936389;29;20118;-66
2022/09/07 00:46:25;;;;;;;16.13;14.43;;;21.70;62.80;;;;;;4920239;29;20048;-66
2022/09/07 00:49:01;;;;;;;21.23;14.80;;;21.60;63.10;;;;;;4918808;29;20491;-67
2022/09/07 00:51:50;;;;;;;6.85;4.22;;;21.60;63.60;;;;;;4917923;29;20044;-67
2022/09/07 00:54:22;;;;;;;4.55;1.98;;;21.50;62.90;;;;;;4925775;29;20068;-67
2022/09/07 00:56:51;;;;;;;5.50;4.03;;;21.40;62.60;;;;;;4917711;29;20052;-67
2022/09/07 00:59:21;;;;;;;3.97;1.40;;;21.30;62.50;;;;;;4927481;29;20079;-68
2022/09/07 01:01:46;;;;;;;4.53;1.95;;;21.30;62.70;;;;;;4936983;29;20047;-68
2022/09/07 01:04:13;;;;;;;3.53;1.90;;;21.30;62.70;;;;;;4942751;29;20040;-68
2022/09/07 01:06:41;;;;;;;4.82;2.17;;;21.20;62.60;;;;;;4935103;29;20231;-68
2022/09/07 01:09:18;;;;;;;4.30;2.80;;;21.20;62.70;;;;;;4936628;29;20373;-68
2022/09/07 01:11:49;;;;;;;5.93;2.65;;;21.20;62.70;;;;;;4936800;29;20044;-68
2022/09/07 01:14:21;;;;;;;7.03;3.20;;;21.20;62.70;;;;;;4943489;29;20028;-68
2022/09/07 01:17:08;;;;;;;4.40;2.38;;;21.20;62.80;;;;;;4932342;29;20051;-68
2022/09/07 01:19:54;;;;;;;5.93;2.30;;;21.10;62.70;;;;;;4951653;29;20116;-68
2022/09/07 01:22:54;;;;;;;5.22;2.20;;;21.20;62.80;;;;;;4913030;29;20123;-68
2022/09/07 01:25:43;;;;;;;5.97;2.42;;;21.10;62.90;;;;;;4919002;29;20050;-68
2022/09/07 01:28:14;;;;;;;4.15;1.75;;;21.10;62.90;;;;;;4917341;29;20052;-68
2022/09/07 01:30:55;;;;;;;4.10;1.63;;;21.10;62.90;;;;;;4918279;29;20043;-68
2022/09/07 01:33:40;;;;;;;3.70;1.73;;;21.10;62.90;;;;;;4932377;29;20443;-68
2022/09/07 01:36:25;;;;;;;2.78;1.70;;;21.00;62.70;;;;;;4950035;28;20084;-68
2022/09/07 01:38:57;;;;;;;3.10;1.45;;;21.00;62.70;;;;;;4935698;29;20047;-68
2022/09/07 01:41:46;;;;;;;3.80;1.83;;;21.00;62.90;;;;;;4930524;29;20052;-68
2022/09/07 01:44:13;;;;;;;3.35;1.50;;;20.90;62.80;;;;;;4949582;29;20102;-68
2022/09/07 01:46:41;;;;;;;5.10;2.33;;;20.80;63.00;;;;;;4921735;29;20123;-65
2022/09/07 01:49:22;;;;;;;3.35;1.98;;;20.70;63.30;;;;;;4929942;29;20440;-65
2022/09/07 01:51:54;;;;;;;3.88;2.28;;;20.60;63.70;;;;;;4933980;29;20028;-65
2022/09/07 01:54:29;;;;;;;5.72;2.83;;;20.50;63.80;;;;;;4925380;29;20047;-65
2022/09/07 01:57:02;;;;;;;3.55;2.08;;;20.40;64.20;;;;;;4916678;29;20036;-65
2022/09/07 01:59:32;;;;;;;5.13;2.60;;;20.30;64.40;;;;;;4917211;29;20042;-65
2022/09/07 02:02:08;;;;;;;3.15;2.17;;;20.20;64.50;;;;;;4931172;28;20043;-65
2022/09/07 02:04:42;;;;;;;3.65;2.40;;;20.20;64.70;;;;;;4924414;29;20036;-65
2022/09/07 02:07:38;;;;;;;3.72;2.65;;;20.10;64.80;;;;;;4916792;29;20123;-65
2022/09/07 02:10:23;;;;;;;3.92;2.55;;;20.10;64.80;;;;;;4925754;29;20040;-65
2022/09/07 02:12:54;;;;;;;5.22;3.08;;;20.00;64.90;;;;;;4919428;29;20040;-65
2022/09/07 02:15:30;;;;;;;6.57;2.63;;;20.00;65.20;;;;;;4917626;29;20472;-65
2022/09/07 02:18:01;;;;;;;3.60;2.80;;;19.90;65.30;;;;;;4927971;29;20377;-65
2022/09/07 02:20:35;;;;;;;4.72;2.30;;;19.90;65.50;;;;;;4935427;29;20079;-65
2022/09/07 02:23:06;;;;;;;4.20;2.63;;;19.80;65.40;;;;;;4921341;29;20559;-65
2022/09/07 02:25:36;;;;;;;3.28;2.10;;;19.80;65.60;;;;;;4934676;29;20043;-65
2022/09/07 02:28:13;;;;;;;3.40;1.88;;;19.70;65.60;;;;;;4932895;29;20126;-65
2022/09/07 02:30:39;;;;;;;2.70;2.08;;;19.80;65.50;;;;;;4934348;29;20047;-65
2022/09/07 02:33:05;;;;;;;2.50;1.80;;;19.70;65.40;;;;;;4935156;29;20493;-65
2022/09/07 02:35:31;;;;;;;2.90;1.80;;;19.70;65.40;;;;;;4936039;29;20035;-65
2022/09/07 02:38:01;;;;;;;3.42;1.88;;;19.70;65.40;;;;;;4918226;29;20044;-65
2022/09/07 02:40:27;;;;;;;4.32;1.90;;;19.70;65.50;;;;;;4916165;29;20048;-65
2022/09/07 02:42:53;;;;;;;3.17;1.70;;;19.70;65.50;;;;;;4931648;29;20056;-65
2022/09/07 02:45:19;;;;;;;5.13;1.73;;;19.70;65.40;;;;;;4926366;29;20452;-65
2022/09/07 02:48:18;;;;;;;4.10;2.03;;;19.70;65.40;;;;;;4928473;29;20040;-65
2022/09/07 02:50:52;;;;;;;3.13;1.90;;;19.70;65.40;;;;;;4917149;29;20040;-65
2022/09/07 02:53:24;;;;;;;2.90;1.50;;;19.70;65.40;;;;;;4928352;29;20050;-65
2022/09/07 02:55:49;;;;;;;3.20;1.80;;;19.70;65.40;;;;;;4915661;29;20044;-65
2022/09/07 02:58:27;;;;;;;3.45;1.98;;;19.70;65.30;;;;;;4923871;29;20118;-65
2022/09/07 03:01:06;;;;;;;3.00;2.15;;;19.80;65.30;;;;;;4929071;29;20477;-65
2022/09/07 03:04:26;;;;;;;4.38;1.98;;;19.80;65.30;;;;;;4915605;29;20051;-65
2022/09/07 03:07:04;;;;;;;4.05;2.33;;;19.80;65.20;;;;;;4917593;29;20515;-65
2022/09/07 03:09:36;;;;;;;4.70;2.30;;;19.80;65.30;;;;;;4915238;29;20059;-65
2022/09/07 03:12:04;;;;;;;3.25;2.47;;;19.90;65.40;;;;;;4929689;29;20059;-65
2022/09/07 03:14:32;;;;;;;4.85;2.25;;;19.90;65.40;;;;;;4935271;29;20047;-65
2022/09/07 03:16:58;;;;;;;3.45;1.60;;;19.90;65.30;;;;;;4916738;29;20492;-65
2022/09/07 03:19:24;;;;;;;3.55;2.22;;;19.90;65.20;;;;;;4915728;29;20425;-65
2022/09/07 03:21:50;;;;;;;5.13;2.45;;;19.90;65.30;;;;;;4927980;29;20043;-65
2022/09/07 03:24:16;;;;;;;3.88;2.60;;;19.90;65.40;;;;;;4950041;28;20087;-65
2022/09/07 03:26:50;;;;;;;4.72;2.35;;;19.90;65.40;;;;;;4934382;29;20149;-65
2022/09/07 03:29:17;;;;;;;6.28;3.22;;;19.90;65.40;;;;;;4926954;29;20508;-67
2022/09/07 03:31:43;;;;;;;5.15;3.58;;;19.90;65.40;;;;;;4926103;29;20548;-68
2022/09/07 03:34:10;;;;;;;4.72;2.80;;;19.90;66.00;;;;;;4919759;29;20094;-65
2022/09/07 03:36:36;;;;;;;2.92;2.30;;;19.80;65.60;;;;;;4946627;29;20036;-66
2022/09/07 03:39:03;;;;;;;3.17;2.00;;;19.90;65.70;;;;;;4932096;29;20131;-65
2022/09/07 03:41:28;;;;;;;5.78;3.10;;;19.90;65.50;;;;;;4923608;29;20055;-65
2022/09/07 03:43:54;;;;;;;3.13;2.08;;;19.80;65.60;;;;;;4935360;29;20126;-65
2022/09/07 03:46:20;;;;;;;2.17;1.67;;;19.80;65.60;;;;;;4933916;29;20544;-67
2022/09/07 03:48:47;;;;;;;3.25;2.95;;;19.80;65.50;;;;;;4925472;29;20126;-67
2022/09/07 03:51:15;;;;;;;5.07;3.08;;;19.80;65.60;;;;;;4927334;29;20040;-67
2022/09/07 03:53:43;;;;;;;5.95;3.83;;;19.80;65.80;;;;;;4928178;29;20044;-68
2022/09/07 03:56:14;;;;;;;4.22;3.58;;;19.80;65.80;;;;;;4921070;29;20096;-68
2022/09/07 03:58:40;;;;;;;3.28;2.40;;;19.70;65.80;;;;;;4917646;29;20040;-68
2022/09/07 04:01:15;;;;;;;3.17;1.90;;;19.70;66.00;;;;;;4949651;29;20600;-68
2022/09/07 04:03:42;;;;;;;3.38;2.40;;;19.60;66.00;;;;;;4930050;29;20052;-69
2022/09/07 04:06:08;;;;;;;2.47;1.75;;;19.60;65.90;;;;;;4927461;29;20052;-68
2022/09/07 04:08:35;;;;;;;4.68;1.90;;;19.60;65.80;;;;;;4930605;29;20567;-68
2022/09/07 04:11:04;;;;;;;2.92;2.05;;;19.60;65.70;;;;;;4937460;29;20122;-68
2022/09/07 04:13:31;;;;;;;3.17;1.80;;;19.60;65.70;;;;;;4933628;29;20056;-68
2022/09/07 04:15:57;;;;;;;4.53;2.28;;;19.60;65.70;;;;;;4934469;29;20035;-65
2022/09/07 04:18:23;;;;;;;3.85;2.30;;;19.60;65.80;;;;;;4921782;29;20047;-65
2022/09/07 04:20:49;;;;;;;2.40;1.90;;;19.60;65.70;;;;;;4918581;29;20099;-65
2022/09/07 04:23:17;;;;;;;2.13;1.58;;;19.60;65.70;;;;;;4950004;28;20127;-65
2022/09/07 04:25:50;;;;;;;2.95;2.38;;;19.60;65.50;;;;;;4918158;29;20056;-65
2022/09/07 04:28:17;;;;;;;2.92;1.80;;;19.60;65.60;;;;;;4925927;29;20036;-65
2022/09/07 04:30:43;;;;;;;2.65;1.75;;;19.70;65.50;;;;;;4923132;29;20043;-65
2022/09/07 04:33:09;;;;;;;3.03;2.50;;;19.70;65.40;;;;;;4934665;29;20048;-65
2022/09/07 04:35:37;;;;;;;2.47;2.00;;;19.70;65.40;;;;;;4935362;29;20047;-65
2022/09/07 04:38:03;;;;;;;2.83;2.00;;;19.70;65.40;;;;;;4936766;29;20476;-66
2022/09/07 04:40:29;;;;;;;3.08;2.08;;;19.70;65.30;;;;;;4936801;29;20044;-65
2022/09/07 04:42:55;;;;;;;2.95;2.17;;;19.70;65.30;;;;;;4952861;29;20059;-65
2022/09/07 04:45:20;;;;;;;3.40;2.55;;;19.80;65.40;;;;;;4933398;29;20052;-65
2022/09/07 04:47:47;;;;;;;3.72;2.25;;;19.80;65.30;;;;;;4936630;29;20408;-67
2022/09/07 04:50:15;;;;;;;3.50;2.10;;;19.80;65.20;;;;;;4950895;29;20041;-69
2022/09/07 04:52:42;;;;;;;3.00;2.33;;;19.80;65.20;;;;;;4936509;29;20126;-68
2022/09/07 04:55:08;;;;;;;2.42;1.52;;;19.80;65.10;;;;;;4922985;29;20120;-68
2022/09/07 04:57:34;;;;;;;3.72;2.08;;;19.80;65.10;;;;;;4924219;29;20459;-68
2022/09/07 05:00:00;;;;;;;4.57;3.50;;;19.90;65.00;;;;;;4941044;29;20086;-68
2022/09/07 05:02:25;;;;;;;3.75;2.63;;;19.80;65.20;;;;;;4933666;29;20083;-68
2022/09/07 05:04:51;;;;;;;2.90;2.17;;;19.90;65.50;;;;;;4919394;29;20082;-68
2022/09/07 05:07:17;;;;;;;3.70;2.20;;;19.80;65.30;;;;;;4951091;29;20114;-68
2022/09/07 05:09:42;;;;;;;4.18;2.72;;;19.90;65.30;;;;;;4920504;29;20539;-68
2022/09/07 05:12:08;;;;;;;2.97;2.30;;;19.80;65.20;;;;;;4937539;29;20098;-68
2022/09/07 05:14:34;;;;;;;3.20;2.70;;;19.90;65.20;;;;;;4938714;29;20107;-68
2022/09/07 05:17:00;;;;;;;3.60;2.40;;;19.90;65.30;;;;;;4929943;29;20116;-68
2022/09/07 05:19:26;;;;;;;2.70;2.28;;;19.90;65.40;;;;;;4921138;29;20040;-68
2022/09/07 05:21:52;;;;;;;5.28;3.50;;;19.80;65.60;;;;;;4918878;29;20048;-68
2022/09/07 05:24:18;;;;;;;3.67;2.70;;;19.80;65.80;;;;;;4917284;29;20059;-64
2022/09/07 05:26:44;;;;;;;4.22;2.20;;;19.80;65.80;;;;;;4918420;29;20048;-65
2022/09/07 05:29:10;;;;;;;3.00;2.45;;;19.80;65.60;;;;;;4917168;29;20115;-65
2022/09/07 05:31:35;;;;;;;2.92;2.08;;;19.90;65.60;;;;;;4917208;29;20070;-69
2022/09/07 05:34:01;;;;;;;3.55;2.10;;;19.80;65.40;;;;;;4925660;29;20044;-68
2022/09/07 05:36:28;;;;;;;3.22;2.78;;;19.80;65.30;;;;;;4923537;29;20071;-68
2022/09/07 05:38:57;;;;;;;4.40;4.00;;;19.80;65.50;;;;;;4928940;29;20048;-68
2022/09/07 05:41:25;;;;;;;2.13;1.92;;;19.80;65.80;;;;;;4931557;29;20060;-68
2022/09/07 05:43:51;;;;;;;3.47;2.53;;;19.80;65.70;;;;;;4933541;29;20050;-64
2022/09/07 05:46:17;;;;;;;3.22;2.38;;;19.90;65.70;;;;;;4917067;29;20044;-64
2022/09/07 05:48:43;;;;;;;3.30;2.50;;;19.80;65.70;;;;;;4934448;29;20039;-64
2022/09/07 05:51:11;;;;;;;3.08;2.42;;;19.80;65.70;;;;;;4935667;29;20562;-64
2022/09/07 05:53:39;;;;;;;3.75;3.03;;;19.90;66.10;;;;;;4929737;29;20091;-64
2022/09/07 05:56:05;;;;;;;3.75;2.80;;;19.90;65.80;;;;;;4919671;29;20083;-64
2022/09/07 05:58:31;;;;;;;5.53;4.20;;;19.80;65.70;;;;;;4920778;29;20051;-65
2022/09/07 06:00:59;;;;;;;5.95;4.47;;;19.80;66.00;;;;;;4923524;29;20047;-65
2022/09/07 06:03:25;;;;;;;4.70;2.55;;;19.80;66.60;;;;;;4924221;29;20047;-64
2022/09/07 06:06:08;;;;;;;3.30;2.60;;;19.80;66.30;;;;;;4930682;29;20567;-64
2022/09/07 06:08:36;;;;;;;3.65;2.63;;;19.90;66.00;;;;;;4928095;29;20649;-64
2022/09/07 06:11:06;;;;;;;3.22;2.67;;;19.80;65.90;;;;;;4935897;29;20102;-64
2022/09/07 06:13:32;;;;;;;5.88;3.33;;;19.80;65.90;;;;;;4935334;29;20077;-64
2022/09/07 06:16:03;;;;;;;6.78;5.70;;;19.80;66.00;;;;;;4936303;29;20039;-66
2022/09/07 06:18:36;;;;;;;5.70;3.83;;;19.80;66.60;;;;;;4929782;29;20539;-67
2022/09/07 06:21:22;;;;;;;3.53;2.72;;;19.80;66.70;;;;;;4917468;29;20044;-64
2022/09/07 06:23:49;;;;;;;6.38;5.78;;;19.80;66.50;;;;;;4917526;29;20092;-64
2022/09/07 06:26:15;;;;;;;6.60;5.90;;;19.80;66.90;;;;;;4915561;29;20678;-67
2022/09/07 06:28:43;;;;;;;5.15;4.65;;;19.80;67.40;;;;;;4918290;29;20042;-64
2022/09/07 06:31:14;;;;;;;5.63;4.85;;;19.80;67.40;;;;;;4917395;29;20140;-64
2022/09/07 06:33:41;;;;;;;4.72;3.45;;;19.90;67.40;;;;;;4917296;29;20050;-64
2022/09/07 06:36:23;;;;;;;6.32;5.30;;;19.80;67.10;;;;;;4916073;29;20096;-67
2022/09/07 06:38:51;;;;;;;6.53;5.28;;;19.90;66.90;;;;;;4917118;29;20052;-67
2022/09/07 06:41:19;;;;;;;7.47;6.03;;;19.80;66.90;;;;;;4917212;29;20062;-67
2022/09/07 06:43:45;;;;;;;8.07;7.28;;;19.90;67.00;;;;;;4917134;29;20111;-67
2022/09/07 06:46:12;;;;;;;11.57;10.48;;;19.90;67.00;;;;;;4917113;29;20492;-67
2022/09/07 06:48:38;;;;;;;8.32;7.53;;;19.90;67.40;;;;;;4917587;29;20104;-67
2022/09/07 06:51:06;;;;;;;11.38;10.27;;;19.90;67.40;;;;;;4915951;29;20043;-67
2022/09/07 06:53:34;;;;;;;13.18;11.73;;;19.90;67.50;;;;;;4915758;29;20060;-67
2022/09/07 06:56:03;;;;;;;12.95;11.75;;;19.90;67.90;;;;;;4916907;29;20080;-67
2022/09/07 06:58:29;;;;;;;15.15;13.68;;;19.90;68.00;;;;;;4919403;29;20048;-67
2022/09/07 07:00:55;;;;;;;12.90;11.63;;;19.90;68.30;;;;;;4917049;29;20040;-67
2022/09/07 07:03:21;;;;;;;12.38;11.27;;;19.90;68.60;;;;;;4924649;29;20392;-67
2022/09/07 07:05:55;;;;;;;15.73;14.15;;;19.90;68.80;;;;;;4935537;29;20076;-67
2022/09/07 07:08:23;;;;;;;15.55;13.95;;;19.90;68.90;;;;;;4924747;29;20052;-67
2022/09/07 07:10:49;;;;;;;15.07;13.60;;;19.90;68.80;;;;;;4915891;29;20173;-67
2022/09/07 07:13:16;;;;;;;15.02;13.52;;;19.90;68.70;;;;;;4915609;29;20103;-68
2022/09/07 07:15:42;;;;;;;13.40;12.00;;;19.90;68.70;;;;;;4922328;29;20035;-68
2022/09/07 07:18:08;;;;;;;15.85;14.27;;;19.90;68.90;;;;;;4948008;28;20118;-68
2022/09/07 07:20:35;;;;;;;17.48;15.77;;;19.90;68.90;;;;;;4934128;29;20039;-68
2022/09/07 07:23:01;;;;;;;19.73;17.85;;;19.80;69.30;;;;;;4934429;29;20054;-68
2022/09/07 07:25:27;;;;;;;17.63;15.88;;;19.90;69.70;;;;;;4935510;29;20040;-68
2022/09/07 07:27:52;;;;;;;17.98;16.23;;;19.90;70.00;;;;;;4918522;29;20054;-64
2022/09/07 07:30:19;;;;;;;20.90;18.17;;;19.90;70.20;;;;;;4932838;29;20460;-64
2022/09/07 07:32:45;;;;;;;16.23;14.25;;;19.90;70.40;;;;;;4934358;29;20127;-64
2022/09/07 07:35:18;;;;;;;16.50;14.88;;;19.90;70.30;;;;;;4948417;28;20391;-64
2022/09/07 07:37:44;;;;;;;13.73;12.32;;;19.90;70.20;;;;;;4950198;29;20554;-64
2022/09/07 07:40:11;;;;;;;15.40;13.85;;;19.90;70.00;;;;;;4929192;29;20110;-64
2022/09/07 07:42:38;;;;;;;15.40;13.93;;;19.90;70.20;;;;;;4939175;29;20416;-64
2022/09/07 07:45:06;;;;;;;15.73;14.00;;;20.00;70.30;;;;;;4933821;29;20118;-64
2022/09/07 07:47:32;;;;;;;12.68;11.38;;;20.00;70.20;;;;;;4929408;29;20083;-64
2022/09/07 07:49:57;;;;;;;13.30;12.10;;;20.10;70.10;;;;;;4927637;29;20039;-64
2022/09/07 07:52:23;;;;;;;15.05;13.65;;;20.10;70.10;;;;;;4948401;29;20055;-67
2022/09/07 07:54:49;;;;;;;16.70;14.27;;;20.20;70.10;;;;;;4944947;29;20523;-64
2022/09/07 07:57:18;;;;;;;13.00;11.80;;;20.30;70.20;;;;;;4921158;29;20424;-64
2022/09/07 07:59:44;;;;;;;13.02;11.82;;;20.30;70.10;;;;;;4923274;29;20050;-65
2022/09/07 08:02:14;;;;;;;12.27;9.48;;;20.40;69.90;;;;;;4926300;29;20123;-64
2022/09/07 08:04:40;;;;;;;14.73;13.02;;;20.50;69.50;;;;;;4937773;29;20052;-64
2022/09/07 08:07:06;;;;;;;12.27;10.95;;;20.50;69.50;;;;;;4937530;29;20043;-64
2022/09/07 08:09:32;;;;;;;10.43;8.75;;;20.60;69.40;;;;;;4938202;29;20083;-65
2022/09/07 08:11:57;;;;;;;7.90;6.78;;;20.60;69.10;;;;;;4937155;29;20036;-65
2022/09/07 08:14:23;;;;;;;9.45;8.55;;;20.70;68.60;;;;;;4953442;29;20472;-65
2022/09/07 08:16:48;;;;;;;10.15;9.15;;;20.70;68.40;;;;;;4951824;29;20480;-67
2022/09/07 08:19:14;;;;;;;11.95;8.25;;;20.70;68.40;;;;;;4937415;29;20051;-65
2022/09/07 08:21:40;;;;;;;9.88;8.18;;;20.80;68.40;;;;;;4929353;29;20036;-65
2022/09/07 08:24:06;;;;;;;9.43;8.40;;;20.90;68.50;;;;;;4936050;29;20083;-65
2022/09/07 08:26:31;;;;;;;7.85;6.78;;;21.00;68.80;;;;;;4938450;29;20054;-65
2022/09/07 08:28:57;;;;;;;8.35;7.10;;;21.10;68.70;;;;;;4936380;29;20048;-65
2022/09/07 08:31:23;;;;;;;8.68;7.72;;;21.30;67.80;;;;;;4936732;29;20036;-65
2022/09/07 08:33:49;;;;;;;9.07;8.18;;;21.30;68.10;;;;;;4937002;29;20408;-65
2022/09/07 08:36:19;;;;;;;7.03;6.32;;;21.50;68.40;;;;;;4937066;29;20047;-65
2022/09/07 08:38:46;;;;;;;8.13;5.80;;;21.70;68.20;;;;;;4935468;29;20081;-65
2022/09/07 08:41:29;;;;;;;6.85;5.65;;;21.90;67.20;;;;;;4922890;29;20056;-67
2022/09/07 08:44:13;;;;;;;8.23;5.63;;;22.00;65.80;;;;;;4903562;29;20044;-69
2022/09/07 08:46:39;;;;;;;;;;;22.10;65.10;;;;;;4933662;29;20318;-65
2022/09/07 08:49:12;;;;;;;7.57;6.78;;;22.30;65.10;;;;;;4935632;29;19919;-65
2022/09/07 08:51:53;;;;;;;6.90;6.20;;;22.30;65.10;;;;;;4917923;29;20047;-65
2022/09/07 08:54:19;;;;;;;7.80;6.55;;;22.50;64.80;;;;;;4918717;29;20052;-65
2022/09/07 08:56:49;;;;;;;5.20;4.68;;;22.50;64.70;;;;;;4918025;29;20036;-65
2022/09/07 08:59:23;;;;;;;6.65;5.18;;;22.60;63.80;;;;;;4918827;29;20079;-65
2022/09/07 09:01:49;;;;;;;6.80;4.57;;;22.70;63.30;;;;;;4935737;29;20040;-67
2022/09/07 09:04:24;;;;;;;6.20;5.05;;;22.70;63.00;;;;;;4937588;29;20099;-67
2022/09/07 09:06:58;;;;;;;7.15;5.20;;;22.80;63.10;;;;;;4937777;29;20376;-68
2022/09/07 09:09:55;;;;;;;6.38;4.93;;;22.80;62.40;;;;;;4949367;28;20052;-68
2022/09/07 09:12:23;;;;;;;6.78;5.20;;;22.80;62.00;;;;;;4936122;29;20051;-65
2022/09/07 09:15:14;;;;;;;8.13;5.05;;;22.80;62.00;;;;;;4936398;29;20052;-66
2022/09/07 09:17:55;;;;;;;8.20;5.38;;;22.80;61.60;;;;;;4936393;29;20135;-67
2022/09/07 09:20:47;;;;;;;6.18;4.97;;;22.90;61.50;;;;;;4932363;29;20472;-67
2022/09/07 09:23:16;;;;;;;7.93;5.43;;;22.90;61.70;;;;;;4937473;29;20052;-67
2022/09/07 09:26:03;;;;;;;8.25;5.85;;;22.80;61.60;;;;;;4931512;29;20133;-67
2022/09/07 09:28:29;;;;;;;8.65;7.05;;;22.90;61.30;;;;;;4925387;29;20174;-68
2022/09/07 09:30:55;;;;;;;9.57;6.68;;;22.80;61.30;;;;;;4918219;29;20048;-68
2022/09/07 09:33:26;;;;;;;15.82;10.25;;;22.80;61.00;;;;;;4917050;29;20060;-68
2022/09/07 09:35:54;;;;;;;13.15;10.43;;;22.90;61.10;;;;;;4917050;29;20044;-68
2022/09/07 09:38:42;;;;;;;15.52;10.85;;;22.80;61.20;;;;;;4927512;29;20571;-68
2022/09/07 09:41:11;;;;;;;16.90;12.45;;;22.80;61.10;;;;;;4950024;29;20044;-68
2022/09/07 09:43:52;;;;;;;19.25;13.90;;;22.80;61.30;;;;;;4935601;29;20051;-68
2022/09/07 09:46:33;;;;;;;19.38;12.45;;;22.80;61.50;;;;;;4937123;29;20518;-69
2022/09/07 09:49:19;;;;;;;18.33;12.68;;;22.80;61.40;;;;;;4935893;29;20234;-69
2022/09/07 09:51:51;;;;;;;16.67;10.73;;;22.80;61.40;;;;;;4936665;29;20488;-68
2022/09/07 09:54:32;;;;;;;12.43;8.40;;;22.80;61.10;;;;;;4935618;29;20107;-68
2022/09/07 09:56:58;;;;;;;12.30;8.20;;;22.90;60.80;;;;;;4935483;29;20040;-68
2022/09/07 09:59:28;;;;;;;11.50;7.70;;;22.90;61.00;;;;;;4935217;29;20142;-68
2022/09/07 10:01:54;;;;;;;10.38;7.50;;;22.90;61.30;;;;;;4919051;29;20040;-68
2022/09/07 10:04:22;;;;;;;9.50;6.97;;;22.90;61.30;;;;;;4928832;29;20047;-68
2022/09/07 10:06:54;;;;;;;9.88;6.28;;;23.00;61.60;;;;;;4951467;29;20067;-68
2022/09/07 10:09:23;;;;;;;7.40;5.45;;;23.00;61.30;;;;;;4935377;29;20082;-68
2022/09/07 10:11:58;;;;;;;8.43;4.93;;;23.00;61.10;;;;;;4930989;29;20400;-68
2022/09/07 10:14:29;;;;;;;8.32;4.88;;;23.10;60.50;;;;;;4917343;29;20052;-68
2022/09/07 10:16:57;;;;;;;8.27;5.47;;;23.20;60.40;;;;;;4918583;29;20040;-68
2022/09/07 10:19:34;;;;;;;6.60;5.10;;;23.20;60.20;;;;;;4934993;29;20115;-68
2022/09/07 10:22:21;;;;;;;8.30;4.68;;;23.30;60.10;;;;;;4934918;29;20050;-68
2022/09/07 10:24:47;;;;;;;7.85;5.78;;;23.40;60.00;;;;;;4934932;29;20046;-68
2022/09/07 10:27:32;;;;;;;8.80;6.10;;;23.50;59.90;;;;;;4950974;28;20048;-69
2022/09/07 10:29:59;;;;;;;5.80;4.53;;;23.60;60.00;;;;;;4919476;29;20374;-69
2022/09/07 10:32:41;;;;;;;9.68;6.47;;;23.70;59.20;;;;;;4916860;29;20127;-69
2022/09/07 10:35:37;;;;;;;9.90;7.53;;;23.70;58.90;;;;;;4917252;29;20044;-69
2022/09/07 10:38:16;;;;;;;8.40;5.88;;;23.80;58.90;;;;;;4910513;29;20100;-69
2022/09/07 10:41:04;;;;;;;9.80;6.53;;;23.90;58.60;;;;;;4950802;29;20420;-69
2022/09/07 10:43:41;;;;;;;8.75;6.18;;;24.00;58.80;;;;;;4936871;29;20142;-69
2022/09/07 10:46:22;;;;;;;7.35;4.65;;;24.10;58.40;;;;;;4917066;29;20059;-69
2022/09/07 10:48:56;;;;;;;5.78;3.97;;;24.20;58.20;;;;;;4919913;29;20058;-69
2022/09/07 10:51:45;;;;;;;5.18;3.58;;;24.30;58.00;;;;;;4934716;29;20510;-68
2022/09/07 10:54:34;;;;;;;6.03;3.67;;;24.40;57.90;;;;;;4934238;29;20047;-68
2022/09/07 10:57:20;;;;;;;7.57;4.65;;;24.60;57.60;;;;;;4917315;29;20044;-68
2022/09/07 11:00:12;;;;;;;6.18;4.07;;;24.70;57.50;;;;;;4950250;29;20048;-69
2022/09/07 11:02:57;;;;;;;8.88;4.35;;;24.80;57.20;;;;;;4934603;29;20051;-69
2022/09/07 11:05:48;;;;;;;6.20;3.30;;;25.00;56.40;;;;;;4927442;29;20039;-69
2022/09/07 11:08:23;;;;;;;8.25;3.92;;;25.10;56.60;;;;;;4934303;29;20047;-69
2022/09/07 11:11:01;;;;;;;6.25;3.60;;;25.20;56.20;;;;;;4925549;29;20099;-68
2022/09/07 11:13:32;;;;;;;4.72;3.53;;;25.30;56.20;;;;;;4950606;28;20102;-69
2022/09/07 11:16:05;;;;;;;6.07;3.83;;;25.40;55.70;;;;;;4935797;29;20036;-70
2022/09/07 11:18:34;;;;;;;5.78;3.50;;;25.60;55.40;;;;;;4931950;29;20119;-69
2022/09/07 11:21:04;;;;;;;6.28;3.95;;;25.70;55.30;;;;;;4946425;28;20086;-69
2022/09/07 11:23:42;;;;;;;6.32;4.25;;;25.80;54.70;;;;;;4923736;29;20578;-69
2022/09/07 11:26:22;;;;;;;7.15;4.53;;;25.90;54.60;;;;;;4930289;29;20040;-69
2022/09/07 11:29:08;;;;;;;8.38;5.72;;;26.00;53.90;;;;;;4928251;29;20099;-69
2022/09/07 11:31:43;;;;;;;9.07;6.10;;;26.10;54.50;;;;;;4934363;29;20059;-69
2022/09/07 11:34:34;;;;;;;10.07;5.63;;;26.10;54.00;;;;;;4934212;29;20056;-69
2022/09/07 11:37:18;;;;;;;9.13;5.72;;;26.20;54.10;;;;;;4944097;29;20043;-69
2022/09/07 11:39:51;;;;;;;9.00;5.60;;;26.30;54.10;;;;;;4915301;29;20044;-68
2022/09/07 11:42:30;;;;;;;8.27;6.35;;;26.40;53.60;;;;;;4916404;29;20044;-68
2022/09/07 11:45:03;;;;;;;12.32;7.22;;;26.50;53.30;;;;;;4915923;29;20047;-68
2022/09/07 11:48:02;;;;;;;12.48;8.68;;;26.50;53.00;;;;;;4915570;29;20044;-68
2022/09/07 11:50:32;;;;;;;12.20;8.05;;;26.60;53.10;;;;;;4933918;29;20044;-68
2022/09/07 11:53:05;;;;;;;11.40;6.88;;;26.60;52.90;;;;;;4937358;28;20412;-68
2022/09/07 11:55:37;;;;;;;11.65;8.32;;;26.70;52.70;;;;;;4915098;29;20111;-69
2022/09/07 11:58:21;;;;;;;12.07;8.52;;;26.70;52.10;;;;;;4916412;29;20490;-69
2022/09/07 12:01:12;;;;;;;11.85;8.50;;;26.80;52.30;;;;;;4931446;29;20047;-68
2022/09/07 12:03:46;;;;;;;10.65;6.10;;;26.80;52.00;;;;;;4949032;29;20079;-68
2022/09/07 12:06:24;;;;;;;10.48;6.50;;;26.80;50.90;;;;;;4933991;29;20456;-68
2022/09/07 12:09:29;;;;;;;10.38;6.55;;;26.70;51.50;;;;;;4934024;29;20062;-68
2022/09/07 12:12:43;;;;;;;10.25;5.93;;;26.80;52.30;;;;;;4915081;29;20047;-68
2022/09/07 12:15:28;;;;;;;9.80;6.50;;;26.80;52.50;;;;;;4898489;29;20056;-68
2022/09/07 12:18:25;;;;;;;10.07;6.15;;;26.80;51.70;;;;;;4924883;29;20284;-68
2022/09/07 12:20:51;;;;;;;8.85;6.18;;;26.80;51.70;;;;;;4924062;29;20480;-68
2022/09/07 12:23:26;;;;;;;9.13;5.40;;;26.90;51.90;;;;;;4905158;29;20036;-69
2022/09/07 12:26:31;;;;;;;8.48;5.45;;;26.90;51.90;;;;;;4926691;29;20040;-69
2022/09/07 12:28:56;;;;;;;8.52;5.68;;;27.00;52.10;;;;;;4919366;29;20046;-69
2022/09/07 12:31:51;;;;;;;8.20;5.03;;;27.10;51.20;;;;;;4919517;29;20052;-69
2022/09/07 12:34:31;;;;;;;6.43;4.18;;;27.20;51.70;;;;;;4930552;29;20048;-69
2022/09/07 12:36:58;;;;;;;5.18;3.83;;;27.30;51.50;;;;;;4953179;29;20587;-69
2022/09/07 12:39:31;;;;;;;4.80;2.78;;;27.30;51.40;;;;;;4938422;29;20081;-69
2022/09/07 12:42:06;;;;;;;5.72;4.13;;;27.40;50.50;;;;;;4935482;29;20508;-69
2022/09/07 12:44:33;;;;;;;5.20;3.30;;;27.40;49.60;;;;;;4952970;28;20054;-69
2022/09/07 12:47:01;;;;;;;5.75;3.60;;;27.40;49.80;;;;;;4936950;29;20044;-69
2022/09/07 12:50:05;;;;;;;5.28;3.15;;;27.40;49.70;;;;;;4923923;29;20119;-69
2022/09/07 12:52:39;;;;;;;4.65;2.90;;;27.40;50.20;;;;;;4920822;29;20530;-69
2022/09/07 12:55:39;;;;;;;5.30;2.80;;;27.40;50.20;;;;;;4917848;29;20040;-68
2022/09/07 12:58:15;;;;;;;3.78;2.40;;;27.40;50.30;;;;;;4927823;29;20043;-68
2022/09/07 13:01:15;;;;;;;3.55;2.35;;;27.50;50.10;;;;;;4952771;29;20650;-65
2022/09/07 13:04:02;;;;;;;3.55;2.00;;;27.50;49.80;;;;;;4936258;29;20508;-65
2022/09/07 13:06:40;;;;;;;3.10;2.13;;;27.50;49.60;;;;;;4939566;29;20047;-66
2022/09/07 13:09:19;;;;;;;2.85;1.92;;;27.60;49.90;;;;;;4930921;29;20047;-67
2022/09/07 13:11:45;;;;;;;3.40;1.77;;;27.60;49.50;;;;;;4933803;29;20040;-67